LOWL/LNZ METAR and TAF weather

Enter ICAO airport designator
Station Type Date Time Source
LOWL METAR 2020/07/15 01:20 UTC NOAA

LOWL 150120Z AUTO 27003KT 9999 NSC 14/11 Q1013


Station Type Date Time Source
LOWL Decoded METAR 2020/07/15 01:20 UTC NOAA

Linz / Hoersching-Flughafen, Austria (LOWL) 48-14N 014-11E 313M
Jul 14, 2020 - 09:20 PM EDT / 2020.07.15 0120 UTC
Wind: from the W (270 degrees) at 3 MPH (3 KT):0
Visibility: greater than 7 mile(s):0
Temperature: 57 F (14 C)
Dew Point: 51 F (11 C)
Relative Humidity: 82%
Pressure (altimeter): 29.91 in. Hg (1013 hPa)
ob: LOWL 150120Z AUTO 27003KT 9999 NSC 14/11 Q1013
cycle: 1

Station Type Date Time Source
LOWL TAF 2020/07/14 18:18 UTC NOAA

TAF LOWL 141715Z 1418/1518 VRB02KT 9999 FEW060 TX25/1513Z TN13/1504Z
BECMG 1509/1511 28006KT
TEMPO 1513/1518 FEW050CB PROB30
TEMPO 1514/1518 25015G30KT 4000 TSRA SCT040CB BKN060

Example: see airport list